sensor_id;sensor_type;location;lat;lon;timestamp;P1;durP1;ratioP1;P2;durP2;ratioP2
14076;SDS011;7114;51.100;13.998;2023-05-10T00:00:57;10.43;;;1.50;;
14076;SDS011;7114;51.100;13.998;2023-05-10T00:03:24;5.33;;;1.40;;
14076;SDS011;7114;51.100;13.998;2023-05-10T00:05:50;6.05;;;1.35;;
14076;SDS011;7114;51.100;13.998;2023-05-10T00:08:16;6.07;;;1.50;;
14076;SDS011;7114;51.100;13.998;2023-05-10T00:10:43;5.65;;;1.30;;
14076;SDS011;7114;51.100;13.998;2023-05-10T00:13:09;6.13;;;1.60;;
14076;SDS011;7114;51.100;13.998;2023-05-10T00:15:35;7.13;;;1.60;;
14076;SDS011;7114;51.100;13.998;2023-05-10T00:18:01;5.35;;;1.60;;
14076;SDS011;7114;51.100;13.998;2023-05-10T00:20:29;6.80;;;1.80;;
14076;SDS011;7114;51.100;13.998;2023-05-10T00:22:55;5.15;;;1.30;;
14076;SDS011;7114;51.100;13.998;2023-05-10T00:25:21;5.43;;;1.50;;
14076;SDS011;7114;51.100;13.998;2023-05-10T00:27:47;5.77;;;1.13;;
14076;SDS011;7114;51.100;13.998;2023-05-10T00:30:14;5.05;;;1.30;;
14076;SDS011;7114;51.100;13.998;2023-05-10T00:32:40;5.15;;;1.40;;
14076;SDS011;7114;51.100;13.998;2023-05-10T00:35:07;5.45;;;1.20;;
14076;SDS011;7114;51.100;13.998;2023-05-10T00:37:34;5.55;;;1.50;;
14076;SDS011;7114;51.100;13.998;2023-05-10T00:40:00;6.13;;;1.40;;
14076;SDS011;7114;51.100;13.998;2023-05-10T00:42:27;5.28;;;1.20;;
14076;SDS011;7114;51.100;13.998;2023-05-10T00:44:53;5.60;;;1.35;;
14076;SDS011;7114;51.100;13.998;2023-05-10T00:47:19;6.00;;;1.40;;
14076;SDS011;7114;51.100;13.998;2023-05-10T00:49:45;6.75;;;1.40;;
14076;SDS011;7114;51.100;13.998;2023-05-10T00:52:12;6.73;;;1.17;;
14076;SDS011;7114;51.100;13.998;2023-05-10T00:54:39;6.30;;;1.40;;
14076;SDS011;7114;51.100;13.998;2023-05-10T00:57:05;6.22;;;1.40;;
14076;SDS011;7114;51.100;13.998;2023-05-10T00:59:31;6.47;;;1.33;;
14076;SDS011;7114;51.100;13.998;2023-05-10T01:01:58;6.63;;;1.50;;
14076;SDS011;7114;51.100;13.998;2023-05-10T01:04:24;5.70;;;1.20;;
14076;SDS011;7114;51.100;13.998;2023-05-10T01:06:51;5.50;;;1.33;;
14076;SDS011;7114;51.100;13.998;2023-05-10T01:09:18;5.60;;;1.20;;
14076;SDS011;7114;51.100;13.998;2023-05-10T01:11:46;5.25;;;1.30;;
14076;SDS011;7114;51.100;13.998;2023-05-10T01:14:12;5.68;;;1.40;;
14076;SDS011;7114;51.100;13.998;2023-05-10T01:16:39;6.03;;;1.30;;
14076;SDS011;7114;51.100;13.998;2023-05-10T01:19:06;5.78;;;1.20;;
14076;SDS011;7114;51.100;13.998;2023-05-10T01:21:37;6.13;;;1.40;;
14076;SDS011;7114;51.100;13.998;2023-05-10T01:24:21;5.82;;;1.40;;
14076;SDS011;7114;51.100;13.998;2023-05-10T01:27:02;6.10;;;1.40;;
14076;SDS011;7114;51.100;13.998;2023-05-10T01:29:39;7.50;;;1.23;;
14076;SDS011;7114;51.100;13.998;2023-05-10T01:32:20;6.57;;;1.10;;
14076;SDS011;7114;51.100;13.998;2023-05-10T01:34:51;5.57;;;1.10;;
14076;SDS011;7114;51.100;13.998;2023-05-10T01:37:20;5.80;;;1.27;;
14076;SDS011;7114;51.100;13.998;2023-05-10T01:39:49;5.63;;;1.15;;
14076;SDS011;7114;51.100;13.998;2023-05-10T01:42:20;6.80;;;1.20;;
14076;SDS011;7114;51.100;13.998;2023-05-10T01:44:49;5.28;;;1.30;;
14076;SDS011;7114;51.100;13.998;2023-05-10T01:47:23;5.75;;;1.40;;
14076;SDS011;7114;51.100;13.998;2023-05-10T01:49:53;5.28;;;1.08;;
14076;SDS011;7114;51.100;13.998;2023-05-10T01:52:22;5.22;;;1.20;;
14076;SDS011;7114;51.100;13.998;2023-05-10T01:54:52;5.30;;;1.50;;
14076;SDS011;7114;51.100;13.998;2023-05-10T01:57:19;7.28;;;1.60;;
14076;SDS011;7114;51.100;13.998;2023-05-10T01:59:46;5.95;;;1.23;;
14076;SDS011;7114;51.100;13.998;2023-05-10T02:02:15;6.13;;;1.25;;
14076;SDS011;7114;51.100;13.998;2023-05-10T02:04:44;5.03;;;1.35;;
14076;SDS011;7114;51.100;13.998;2023-05-10T02:07:10;5.93;;;1.43;;
14076;SDS011;7114;51.100;13.998;2023-05-10T02:09:37;5.45;;;1.20;;
14076;SDS011;7114;51.100;13.998;2023-05-10T02:12:04;5.50;;;1.27;;
14076;SDS011;7114;51.100;13.998;2023-05-10T02:14:32;5.50;;;1.20;;
14076;SDS011;7114;51.100;13.998;2023-05-10T02:17:00;5.97;;;1.20;;
14076;SDS011;7114;51.100;13.998;2023-05-10T02:19:27;6.93;;;1.70;;
14076;SDS011;7114;51.100;13.998;2023-05-10T02:21:56;6.80;;;1.40;;
14076;SDS011;7114;51.100;13.998;2023-05-10T02:24:23;4.95;;;1.10;;
14076;SDS011;7114;51.100;13.998;2023-05-10T02:26:50;6.05;;;1.20;;
14076;SDS011;7114;51.100;13.998;2023-05-10T02:29:17;5.38;;;1.30;;
14076;SDS011;7114;51.100;13.998;2023-05-10T02:31:44;5.17;;;1.30;;
14076;SDS011;7114;51.100;13.998;2023-05-10T02:34:11;5.25;;;1.20;;
14076;SDS011;7114;51.100;13.998;2023-05-10T02:36:37;4.53;;;1.02;;
14076;SDS011;7114;51.100;13.998;2023-05-10T02:39:05;5.03;;;1.17;;
14076;SDS011;7114;51.100;13.998;2023-05-10T02:41:34;6.15;;;1.48;;
14076;SDS011;7114;51.100;13.998;2023-05-10T02:44:01;5.03;;;1.20;;
14076;SDS011;7114;51.100;13.998;2023-05-10T02:46:28;5.60;;;1.33;;
14076;SDS011;7114;51.100;13.998;2023-05-10T02:48:54;5.95;;;1.30;;
14076;SDS011;7114;51.100;13.998;2023-05-10T02:51:21;5.60;;;1.20;;
14076;SDS011;7114;51.100;13.998;2023-05-10T02:53:50;6.47;;;1.63;;
14076;SDS011;7114;51.100;13.998;2023-05-10T02:56:20;6.43;;;1.13;;
14076;SDS011;7114;51.100;13.998;2023-05-10T02:58:49;5.50;;;1.10;;
14076;SDS011;7114;51.100;13.998;2023-05-10T03:01:16;6.43;;;1.40;;
14076;SDS011;7114;51.100;13.998;2023-05-10T03:03:42;5.15;;;1.23;;
14076;SDS011;7114;51.100;13.998;2023-05-10T03:06:08;6.18;;;1.40;;
14076;SDS011;7114;51.100;13.998;2023-05-10T03:08:34;5.70;;;1.37;;
14076;SDS011;7114;51.100;13.998;2023-05-10T03:11:09;6.25;;;1.58;;
14076;SDS011;7114;51.100;13.998;2023-05-10T03:13:42;7.00;;;1.33;;
14076;SDS011;7114;51.100;13.998;2023-05-10T03:16:11;5.57;;;1.63;;
14076;SDS011;7114;51.100;13.998;2023-05-10T03:18:40;5.78;;;1.30;;
14076;SDS011;7114;51.100;13.998;2023-05-10T03:21:08;7.83;;;1.20;;
14076;SDS011;7114;51.100;13.998;2023-05-10T03:23:40;6.95;;;1.60;;
14076;SDS011;7114;51.100;13.998;2023-05-10T03:26:07;6.22;;;1.20;;
14076;SDS011;7114;51.100;13.998;2023-05-10T03:28:33;5.40;;;1.30;;
14076;SDS011;7114;51.100;13.998;2023-05-10T03:31:01;7.13;;;1.30;;
14076;SDS011;7114;51.100;13.998;2023-05-10T03:33:28;5.50;;;1.33;;
14076;SDS011;7114;51.100;13.998;2023-05-10T03:35:54;5.40;;;1.20;;
14076;SDS011;7114;51.100;13.998;2023-05-10T03:38:20;5.22;;;1.23;;
14076;SDS011;7114;51.100;13.998;2023-05-10T03:40:47;7.03;;;1.40;;
14076;SDS011;7114;51.100;13.998;2023-05-10T03:43:13;6.40;;;1.30;;
14076;SDS011;7114;51.100;13.998;2023-05-10T03:45:39;7.30;;;1.43;;
14076;SDS011;7114;51.100;13.998;2023-05-10T03:48:06;5.32;;;1.40;;
14076;SDS011;7114;51.100;13.998;2023-05-10T03:50:32;5.53;;;1.17;;
14076;SDS011;7114;51.100;13.998;2023-05-10T03:52:59;7.78;;;1.65;;
14076;SDS011;7114;51.100;13.998;2023-05-10T03:55:25;7.05;;;1.30;;
14076;SDS011;7114;51.100;13.998;2023-05-10T03:57:51;5.60;;;1.13;;
14076;SDS011;7114;51.100;13.998;2023-05-10T04:00:19;6.15;;;1.20;;
14076;SDS011;7114;51.100;13.998;2023-05-10T04:02:45;5.50;;;1.20;;
14076;SDS011;7114;51.100;13.998;2023-05-10T04:05:12;6.05;;;1.20;;
14076;SDS011;7114;51.100;13.998;2023-05-10T04:07:39;5.55;;;1.30;;
14076;SDS011;7114;51.100;13.998;2023-05-10T04:10:05;8.23;;;1.33;;
14076;SDS011;7114;51.100;13.998;2023-05-10T04:12:31;5.90;;;1.45;;
14076;SDS011;7114;51.100;13.998;2023-05-10T04:14:58;5.90;;;1.50;;
14076;SDS011;7114;51.100;13.998;2023-05-10T04:17:24;5.95;;;1.30;;
14076;SDS011;7114;51.100;13.998;2023-05-10T04:19:50;5.68;;;1.20;;
14076;SDS011;7114;51.100;13.998;2023-05-10T04:22:19;5.50;;;1.27;;
14076;SDS011;7114;51.100;13.998;2023-05-10T04:24:45;4.95;;;1.20;;
14076;SDS011;7114;51.100;13.998;2023-05-10T04:27:11;5.28;;;1.30;;
14076;SDS011;7114;51.100;13.998;2023-05-10T04:29:38;5.10;;;1.40;;
14076;SDS011;7114;51.100;13.998;2023-05-10T04:32:04;6.97;;;1.60;;
14076;SDS011;7114;51.100;13.998;2023-05-10T04:34:30;5.93;;;1.50;;
14076;SDS011;7114;51.100;13.998;2023-05-10T04:36:59;6.43;;;1.50;;
14076;SDS011;7114;51.100;13.998;2023-05-10T04:39:26;5.57;;;1.30;;
14076;SDS011;7114;51.100;13.998;2023-05-10T04:41:52;5.38;;;1.27;;
14076;SDS011;7114;51.100;13.998;2023-05-10T04:44:18;6.28;;;1.30;;
14076;SDS011;7114;51.100;13.998;2023-05-10T04:46:44;6.67;;;1.20;;
14076;SDS011;7114;51.100;13.998;2023-05-10T04:49:11;5.78;;;1.40;;
14076;SDS011;7114;51.100;13.998;2023-05-10T04:51:37;5.22;;;1.20;;
14076;SDS011;7114;51.100;13.998;2023-05-10T04:54:03;6.25;;;1.30;;
14076;SDS011;7114;51.100;13.998;2023-05-10T04:56:30;6.07;;;1.20;;
14076;SDS011;7114;51.100;13.998;2023-05-10T04:58:57;7.17;;;1.40;;
14076;SDS011;7114;51.100;13.998;2023-05-10T05:01:23;5.95;;;1.30;;
14076;SDS011;7114;51.100;13.998;2023-05-10T05:03:49;6.72;;;1.27;;
14076;SDS011;7114;51.100;13.998;2023-05-10T05:06:17;5.75;;;1.50;;
14076;SDS011;7114;51.100;13.998;2023-05-10T05:08:43;6.55;;;1.40;;
14076;SDS011;7114;51.100;13.998;2023-05-10T05:11:09;7.53;;;1.20;;
14076;SDS011;7114;51.100;13.998;2023-05-10T05:13:37;5.90;;;1.40;;
14076;SDS011;7114;51.100;13.998;2023-05-10T05:16:04;6.82;;;1.30;;
14076;SDS011;7114;51.100;13.998;2023-05-10T05:18:30;6.60;;;1.38;;
14076;SDS011;7114;51.100;13.998;2023-05-10T05:20:56;5.13;;;1.15;;
14076;SDS011;7114;51.100;13.998;2023-05-10T05:23:22;7.07;;;1.50;;
14076;SDS011;7114;51.100;13.998;2023-05-10T05:25:49;5.68;;;1.40;;
14076;SDS011;7114;51.100;13.998;2023-05-10T05:28:16;5.50;;;1.50;;
14076;SDS011;7114;51.100;13.998;2023-05-10T05:30:44;5.72;;;1.20;;
14076;SDS011;7114;51.100;13.998;2023-05-10T05:33:10;5.40;;;1.50;;
14076;SDS011;7114;51.100;13.998;2023-05-10T05:35:36;5.10;;;1.30;;
14076;SDS011;7114;51.100;13.998;2023-05-10T05:38:02;6.22;;;1.38;;
14076;SDS011;7114;51.100;13.998;2023-05-10T05:40:28;5.43;;;1.13;;
14076;SDS011;7114;51.100;13.998;2023-05-10T05:42:55;7.70;;;1.40;;
14076;SDS011;7114;51.100;13.998;2023-05-10T05:45:21;5.70;;;1.55;;
14076;SDS011;7114;51.100;13.998;2023-05-10T05:47:48;5.20;;;1.33;;
14076;SDS011;7114;51.100;13.998;2023-05-10T05:50:14;5.13;;;1.27;;
14076;SDS011;7114;51.100;13.998;2023-05-10T05:52:40;5.10;;;1.10;;
14076;SDS011;7114;51.100;13.998;2023-05-10T05:55:07;5.72;;;1.27;;
14076;SDS011;7114;51.100;13.998;2023-05-10T05:57:33;5.85;;;1.27;;
14076;SDS011;7114;51.100;13.998;2023-05-10T05:59:59;5.03;;;1.30;;
14076;SDS011;7114;51.100;13.998;2023-05-10T06:02:25;5.55;;;1.27;;
14076;SDS011;7114;51.100;13.998;2023-05-10T06:04:53;6.30;;;1.42;;
14076;SDS011;7114;51.100;13.998;2023-05-10T06:07:19;5.47;;;1.58;;
14076;SDS011;7114;51.100;13.998;2023-05-10T06:09:45;6.18;;;1.40;;
14076;SDS011;7114;51.100;13.998;2023-05-10T06:12:11;7.13;;;1.50;;
14076;SDS011;7114;51.100;13.998;2023-05-10T06:14:37;5.97;;;1.38;;
14076;SDS011;7114;51.100;13.998;2023-05-10T06:17:03;7.15;;;1.48;;
14076;SDS011;7114;51.100;13.998;2023-05-10T06:19:30;5.68;;;1.40;;
14076;SDS011;7114;51.100;13.998;2023-05-10T06:21:57;6.55;;;1.52;;
14076;SDS011;7114;51.100;13.998;2023-05-10T06:24:23;7.80;;;2.73;;
14076;SDS011;7114;51.100;13.998;2023-05-10T06:26:49;5.13;;;1.50;;
14076;SDS011;7114;51.100;13.998;2023-05-10T06:29:15;5.60;;;1.52;;
14076;SDS011;7114;51.100;13.998;2023-05-10T06:31:42;6.35;;;2.53;;
14076;SDS011;7114;51.100;13.998;2023-05-10T06:34:08;5.95;;;1.80;;
14076;SDS011;7114;51.100;13.998;2023-05-10T06:36:36;6.97;;;1.77;;
14076;SDS011;7114;51.100;13.998;2023-05-10T06:39:04;5.93;;;1.58;;
14076;SDS011;7114;51.100;13.998;2023-05-10T06:41:30;5.47;;;1.50;;
14076;SDS011;7114;51.100;13.998;2023-05-10T06:43:56;5.20;;;1.50;;
14076;SDS011;7114;51.100;13.998;2023-05-10T06:46:22;6.03;;;1.88;;
14076;SDS011;7114;51.100;13.998;2023-05-10T06:48:49;8.30;;;1.80;;
14076;SDS011;7114;51.100;13.998;2023-05-10T06:51:15;10.90;;;2.40;;
14076;SDS011;7114;51.100;13.998;2023-05-10T06:53:42;6.03;;;1.90;;
14076;SDS011;7114;51.100;13.998;2023-05-10T06:56:10;6.75;;;1.80;;
14076;SDS011;7114;51.100;13.998;2023-05-10T06:58:36;5.53;;;2.33;;
14076;SDS011;7114;51.100;13.998;2023-05-10T07:01:03;5.43;;;1.70;;
14076;SDS011;7114;51.100;13.998;2023-05-10T07:03:29;5.55;;;1.90;;
14076;SDS011;7114;51.100;13.998;2023-05-10T07:05:59;6.53;;;2.38;;
14076;SDS011;7114;51.100;13.998;2023-05-10T07:08:28;6.13;;;2.38;;
14076;SDS011;7114;51.100;13.998;2023-05-10T07:10:57;5.90;;;1.80;;
14076;SDS011;7114;51.100;13.998;2023-05-10T07:13:26;6.50;;;2.37;;
14076;SDS011;7114;51.100;13.998;2023-05-10T07:15:52;6.72;;;2.35;;
14076;SDS011;7114;51.100;13.998;2023-05-10T07:18:18;6.90;;;2.42;;
14076;SDS011;7114;51.100;13.998;2023-05-10T07:20:44;6.28;;;2.10;;
14076;SDS011;7114;51.100;13.998;2023-05-10T07:23:11;6.45;;;2.25;;
14076;SDS011;7114;51.100;13.998;2023-05-10T07:25:37;5.37;;;2.17;;
14076;SDS011;7114;51.100;13.998;2023-05-10T07:28:03;6.15;;;2.30;;
14076;SDS011;7114;51.100;13.998;2023-05-10T07:30:31;6.78;;;2.45;;
14076;SDS011;7114;51.100;13.998;2023-05-10T07:32:57;5.15;;;2.00;;
14076;SDS011;7114;51.100;13.998;2023-05-10T07:35:24;6.00;;;2.15;;
14076;SDS011;7114;51.100;13.998;2023-05-10T07:37:50;6.57;;;2.33;;
14076;SDS011;7114;51.100;13.998;2023-05-10T07:40:16;7.75;;;2.50;;
14076;SDS011;7114;51.100;13.998;2023-05-10T07:42:42;6.35;;;2.42;;
14076;SDS011;7114;51.100;13.998;2023-05-10T07:45:09;5.93;;;2.30;;
14076;SDS011;7114;51.100;13.998;2023-05-10T07:47:36;7.45;;;2.25;;
14076;SDS011;7114;51.100;13.998;2023-05-10T07:50:03;5.83;;;1.93;;
14076;SDS011;7114;51.100;13.998;2023-05-10T07:52:29;5.97;;;2.42;;
14076;SDS011;7114;51.100;13.998;2023-05-10T07:54:55;7.63;;;2.60;;
14076;SDS011;7114;51.100;13.998;2023-05-10T07:57:21;7.10;;;2.90;;
14076;SDS011;7114;51.100;13.998;2023-05-10T07:59:48;6.13;;;2.20;;
14076;SDS011;7114;51.100;13.998;2023-05-10T08:02:14;5.53;;;2.30;;
14076;SDS011;7114;51.100;13.998;2023-05-10T08:04:41;5.20;;;2.40;;
14076;SDS011;7114;51.100;13.998;2023-05-10T08:07:08;6.82;;;2.70;;
14076;SDS011;7114;51.100;13.998;2023-05-10T08:09:34;5.82;;;2.83;;
14076;SDS011;7114;51.100;13.998;2023-05-10T08:12:00;6.22;;;2.80;;
14076;SDS011;7114;51.100;13.998;2023-05-10T08:14:27;6.57;;;2.93;;
14076;SDS011;7114;51.100;13.998;2023-05-10T08:16:54;6.35;;;2.60;;
14076;SDS011;7114;51.100;13.998;2023-05-10T08:19:20;6.88;;;3.03;;
14076;SDS011;7114;51.100;13.998;2023-05-10T08:21:49;8.18;;;3.42;;
14076;SDS011;7114;51.100;13.998;2023-05-10T08:24:15;5.82;;;2.80;;
14076;SDS011;7114;51.100;13.998;2023-05-10T08:26:41;6.03;;;2.80;;
14076;SDS011;7114;51.100;13.998;2023-05-10T08:29:07;6.45;;;3.63;;
14076;SDS011;7114;51.100;13.998;2023-05-10T08:31:33;5.80;;;3.40;;
14076;SDS011;7114;51.100;13.998;2023-05-10T08:33:59;6.15;;;2.70;;
14076;SDS011;7114;51.100;13.998;2023-05-10T08:36:26;5.88;;;3.40;;
14076;SDS011;7114;51.100;13.998;2023-05-10T08:38:53;5.43;;;3.00;;
14076;SDS011;7114;51.100;13.998;2023-05-10T08:41:20;7.10;;;3.00;;
14076;SDS011;7114;51.100;13.998;2023-05-10T08:43:47;6.18;;;3.33;;
14076;SDS011;7114;51.100;13.998;2023-05-10T08:46:13;6.68;;;3.80;;
14076;SDS011;7114;51.100;13.998;2023-05-10T08:48:41;7.30;;;4.03;;
14076;SDS011;7114;51.100;13.998;2023-05-10T08:51:08;6.20;;;3.40;;
14076;SDS011;7114;51.100;13.998;2023-05-10T08:53:35;9.03;;;3.20;;
14076;SDS011;7114;51.100;13.998;2023-05-10T08:56:04;7.72;;;3.42;;
14076;SDS011;7114;51.100;13.998;2023-05-10T08:58:30;6.75;;;3.42;;
14076;SDS011;7114;51.100;13.998;2023-05-10T09:00:57;7.45;;;3.90;;
14076;SDS011;7114;51.100;13.998;2023-05-10T09:03:24;5.72;;;3.38;;
14076;SDS011;7114;51.100;13.998;2023-05-10T09:05:50;5.50;;;3.47;;
14076;SDS011;7114;51.100;13.998;2023-05-10T09:08:16;6.22;;;3.42;;
14076;SDS011;7114;51.100;13.998;2023-05-10T09:10:43;6.35;;;4.55;;
14076;SDS011;7114;51.100;13.998;2023-05-10T09:13:11;7.05;;;3.78;;
14076;SDS011;7114;51.100;13.998;2023-05-10T09:15:37;5.75;;;3.88;;
14076;SDS011;7114;51.100;13.998;2023-05-10T09:18:03;5.40;;;3.50;;
14076;SDS011;7114;51.100;13.998;2023-05-10T09:20:30;5.80;;;3.73;;
14076;SDS011;7114;51.100;13.998;2023-05-10T09:22:56;5.78;;;3.90;;
14076;SDS011;7114;51.100;13.998;2023-05-10T09:25:22;7.18;;;3.80;;
14076;SDS011;7114;51.100;13.998;2023-05-10T09:27:48;6.90;;;4.22;;
14076;SDS011;7114;51.100;13.998;2023-05-10T09:30:16;5.50;;;3.70;;
14076;SDS011;7114;51.100;13.998;2023-05-10T09:32:43;6.23;;;4.23;;
14076;SDS011;7114;51.100;13.998;2023-05-10T09:35:10;7.18;;;4.15;;
14076;SDS011;7114;51.100;13.998;2023-05-10T09:37:36;6.22;;;4.35;;
14076;SDS011;7114;51.100;13.998;2023-05-10T09:40:06;10.43;;;4.22;;
14076;SDS011;7114;51.100;13.998;2023-05-10T09:42:33;6.75;;;4.43;;
14076;SDS011;7114;51.100;13.998;2023-05-10T09:45:00;6.60;;;4.47;;
14076;SDS011;7114;51.100;13.998;2023-05-10T09:47:27;6.22;;;4.57;;
14076;SDS011;7114;51.100;13.998;2023-05-10T09:49:54;6.40;;;3.90;;
14076;SDS011;7114;51.100;13.998;2023-05-10T09:52:22;6.28;;;4.70;;
14076;SDS011;7114;51.100;13.998;2023-05-10T09:54:52;6.15;;;4.65;;
14076;SDS011;7114;51.100;13.998;2023-05-10T09:57:18;6.00;;;4.57;;
14076;SDS011;7114;51.100;13.998;2023-05-10T09:59:45;6.25;;;5.45;;
14076;SDS011;7114;51.100;13.998;2023-05-10T10:02:13;10.48;;;5.30;;
14076;SDS011;7114;51.100;13.998;2023-05-10T10:04:42;7.43;;;5.47;;
14076;SDS011;7114;51.100;13.998;2023-05-10T10:07:09;6.80;;;4.97;;
14076;SDS011;7114;51.100;13.998;2023-05-10T10:09:35;6.73;;;4.50;;
14076;SDS011;7114;51.100;13.998;2023-05-10T10:12:02;6.68;;;5.47;;
14076;SDS011;7114;51.100;13.998;2023-05-10T10:14:28;7.05;;;4.40;;
14076;SDS011;7114;51.100;13.998;2023-05-10T10:16:55;6.90;;;4.13;;
14076;SDS011;7114;51.100;13.998;2023-05-10T10:19:21;6.75;;;4.80;;
14076;SDS011;7114;51.100;13.998;2023-05-10T10:21:49;7.33;;;4.90;;
14076;SDS011;7114;51.100;13.998;2023-05-10T10:24:15;7.15;;;4.90;;
14076;SDS011;7114;51.100;13.998;2023-05-10T10:26:42;7.15;;;5.35;;
14076;SDS011;7114;51.100;13.998;2023-05-10T10:29:10;6.05;;;4.85;;
14076;SDS011;7114;51.100;13.998;2023-05-10T10:31:40;6.10;;;4.72;;
14076;SDS011;7114;51.100;13.998;2023-05-10T10:34:08;7.07;;;6.37;;
14076;SDS011;7114;51.100;13.998;2023-05-10T10:36:39;6.47;;;5.63;;
14076;SDS011;7114;51.100;13.998;2023-05-10T10:39:09;6.82;;;5.30;;
14076;SDS011;7114;51.100;13.998;2023-05-10T10:41:36;6.30;;;5.38;;
14076;SDS011;7114;51.100;13.998;2023-05-10T10:47:01;7.20;;;6.00;;
14076;SDS011;7114;51.100;13.998;2023-05-10T10:49:30;6.60;;;5.32;;
14076;SDS011;7114;51.100;13.998;2023-05-10T10:52:15;7.38;;;5.03;;
14076;SDS011;7114;51.100;13.998;2023-05-10T10:54:50;6.85;;;5.53;;
14076;SDS011;7114;51.100;13.998;2023-05-10T10:57:18;7.63;;;5.82;;
14076;SDS011;7114;51.100;13.998;2023-05-10T10:59:45;7.07;;;5.73;;
14076;SDS011;7114;51.100;13.998;2023-05-10T11:02:20;7.47;;;5.68;;
14076;SDS011;7114;51.100;13.998;2023-05-10T11:04:57;7.72;;;6.32;;
14076;SDS011;7114;51.100;13.998;2023-05-10T11:07:24;8.32;;;6.53;;
14076;SDS011;7114;51.100;13.998;2023-05-10T11:09:51;7.25;;;6.35;;
14076;SDS011;7114;51.100;13.998;2023-05-10T11:12:17;7.50;;;6.00;;
14076;SDS011;7114;51.100;13.998;2023-05-10T11:14:48;9.07;;;5.75;;
14076;SDS011;7114;51.100;13.998;2023-05-10T11:17:24;8.77;;;7.30;;
14076;SDS011;7114;51.100;13.998;2023-05-10T11:20:07;9.32;;;7.03;;
14076;SDS011;7114;51.100;13.998;2023-05-10T11:22:48;7.18;;;6.40;;
14076;SDS011;7114;51.100;13.998;2023-05-10T11:25:16;7.73;;;5.40;;
14076;SDS011;7114;51.100;13.998;2023-05-10T11:27:42;7.15;;;5.50;;
14076;SDS011;7114;51.100;13.998;2023-05-10T11:30:09;7.72;;;6.93;;
14076;SDS011;7114;51.100;13.998;2023-05-10T11:32:36;7.03;;;5.75;;
14076;SDS011;7114;51.100;13.998;2023-05-10T11:35:06;8.50;;;5.95;;
14076;SDS011;7114;51.100;13.998;2023-05-10T11:37:32;6.77;;;6.07;;
14076;SDS011;7114;51.100;13.998;2023-05-10T11:39:59;6.30;;;5.07;;
14076;SDS011;7114;51.100;13.998;2023-05-10T11:42:26;6.45;;;5.45;;
14076;SDS011;7114;51.100;13.998;2023-05-10T11:44:53;8.20;;;5.40;;
14076;SDS011;7114;51.100;13.998;2023-05-10T11:47:19;6.55;;;5.82;;
14076;SDS011;7114;51.100;13.998;2023-05-10T11:49:45;7.10;;;5.87;;
14076;SDS011;7114;51.100;13.998;2023-05-10T11:52:12;7.53;;;5.47;;
14076;SDS011;7114;51.100;13.998;2023-05-10T11:54:44;7.75;;;5.97;;
14076;SDS011;7114;51.100;13.998;2023-05-10T11:57:10;6.30;;;5.30;;
14076;SDS011;7114;51.100;13.998;2023-05-10T11:59:37;7.55;;;4.65;;
14076;SDS011;7114;51.100;13.998;2023-05-10T12:02:04;7.63;;;4.90;;
14076;SDS011;7114;51.100;13.998;2023-05-10T12:04:30;6.28;;;5.30;;
14076;SDS011;7114;51.100;13.998;2023-05-10T12:06:57;6.90;;;4.82;;
14076;SDS011;7114;51.100;13.998;2023-05-10T12:09:23;7.15;;;5.22;;
14076;SDS011;7114;51.100;13.998;2023-05-10T12:11:49;7.43;;;5.32;;
14076;SDS011;7114;51.100;13.998;2023-05-10T12:14:21;8.53;;;6.00;;
14076;SDS011;7114;51.100;13.998;2023-05-10T12:16:48;6.30;;;5.40;;
14076;SDS011;7114;51.100;13.998;2023-05-10T12:19:18;7.22;;;5.55;;
14076;SDS011;7114;51.100;13.998;2023-05-10T12:21:44;6.07;;;5.18;;
14076;SDS011;7114;51.100;13.998;2023-05-10T12:24:10;7.15;;;5.82;;
14076;SDS011;7114;51.100;13.998;2023-05-10T12:26:37;6.50;;;5.80;;
14076;SDS011;7114;51.100;13.998;2023-05-10T12:29:12;8.98;;;5.05;;
14076;SDS011;7114;51.100;13.998;2023-05-10T12:31:51;6.78;;;5.95;;
14076;SDS011;7114;51.100;13.998;2023-05-10T12:34:24;6.05;;;4.75;;
14076;SDS011;7114;51.100;13.998;2023-05-10T12:36:50;6.60;;;4.90;;
14076;SDS011;7114;51.100;13.998;2023-05-10T12:39:17;6.43;;;5.00;;
14076;SDS011;7114;51.100;13.998;2023-05-10T12:41:43;6.68;;;5.35;;
14076;SDS011;7114;51.100;13.998;2023-05-10T12:44:09;6.20;;;4.20;;
14076;SDS011;7114;51.100;13.998;2023-05-10T12:46:36;6.00;;;4.80;;
14076;SDS011;7114;51.100;13.998;2023-05-10T12:49:03;7.18;;;5.45;;
14076;SDS011;7114;51.100;13.998;2023-05-10T12:51:29;6.30;;;5.23;;
14076;SDS011;7114;51.100;13.998;2023-05-10T12:53:56;7.60;;;5.20;;
14076;SDS011;7114;51.100;13.998;2023-05-10T12:56:22;6.80;;;5.50;;
14076;SDS011;7114;51.100;13.998;2023-05-10T12:58:48;5.85;;;5.05;;
14076;SDS011;7114;51.100;13.998;2023-05-10T13:01:14;7.03;;;4.50;;
14076;SDS011;7114;51.100;13.998;2023-05-10T13:03:41;9.90;;;4.70;;
14076;SDS011;7114;51.100;13.998;2023-05-10T13:06:09;8.20;;;4.45;;
14076;SDS011;7114;51.100;13.998;2023-05-10T13:08:35;6.20;;;4.40;;
14076;SDS011;7114;51.100;13.998;2023-05-10T13:11:01;5.97;;;3.70;;
14076;SDS011;7114;51.100;13.998;2023-05-10T13:13:28;6.35;;;4.18;;
14076;SDS011;7114;51.100;13.998;2023-05-10T13:15:54;5.87;;;3.80;;
14076;SDS011;7114;51.100;13.998;2023-05-10T13:18:20;6.20;;;3.60;;
14076;SDS011;7114;51.100;13.998;2023-05-10T13:20:46;6.15;;;3.92;;
14076;SDS011;7114;51.100;13.998;2023-05-10T13:23:15;5.70;;;3.35;;
14076;SDS011;7114;51.100;13.998;2023-05-10T13:25:41;6.20;;;3.78;;
14076;SDS011;7114;51.100;13.998;2023-05-10T13:28:08;8.00;;;3.77;;
14076;SDS011;7114;51.100;13.998;2023-05-10T13:30:34;6.72;;;3.65;;
14076;SDS011;7114;51.100;13.998;2023-05-10T13:33:00;5.25;;;3.00;;
14076;SDS011;7114;51.100;13.998;2023-05-10T13:35:26;5.80;;;3.30;;
14076;SDS011;7114;51.100;13.998;2023-05-10T13:37:52;6.15;;;3.50;;
14076;SDS011;7114;51.100;13.998;2023-05-10T13:40:23;5.73;;;3.57;;
14076;SDS011;7114;51.100;13.998;2023-05-10T13:42:49;7.60;;;3.03;;
14076;SDS011;7114;51.100;13.998;2023-05-10T13:45:15;5.90;;;3.20;;
14076;SDS011;7114;51.100;13.998;2023-05-10T13:47:41;6.15;;;3.33;;
14076;SDS011;7114;51.100;13.998;2023-05-10T13:50:07;6.88;;;3.30;;
14076;SDS011;7114;51.100;13.998;2023-05-10T13:52:34;5.97;;;2.60;;
14076;SDS011;7114;51.100;13.998;2023-05-10T13:55:00;5.93;;;2.80;;
14076;SDS011;7114;51.100;13.998;2023-05-10T13:57:27;9.77;;;3.20;;
14076;SDS011;7114;51.100;13.998;2023-05-10T13:59:55;7.75;;;2.60;;
14076;SDS011;7114;51.100;13.998;2023-05-10T14:02:22;6.22;;;2.42;;
14076;SDS011;7114;51.100;13.998;2023-05-10T14:04:48;5.80;;;3.17;;
14076;SDS011;7114;51.100;13.998;2023-05-10T14:07:14;7.35;;;2.90;;
14076;SDS011;7114;51.100;13.998;2023-05-10T14:09:40;5.72;;;2.70;;
14076;SDS011;7114;51.100;13.998;2023-05-10T14:12:06;5.50;;;2.60;;
14076;SDS011;7114;51.100;13.998;2023-05-10T14:14:34;7.18;;;2.60;;
14076;SDS011;7114;51.100;13.998;2023-05-10T14:17:00;7.13;;;2.40;;
14076;SDS011;7114;51.100;13.998;2023-05-10T14:19:26;6.63;;;2.85;;
14076;SDS011;7114;51.100;13.998;2023-05-10T14:21:52;7.25;;;3.00;;
14076;SDS011;7114;51.100;13.998;2023-05-10T14:24:19;6.72;;;3.10;;
14076;SDS011;7114;51.100;13.998;2023-05-10T14:26:45;5.90;;;2.83;;
14076;SDS011;7114;51.100;13.998;2023-05-10T14:29:11;5.60;;;2.60;;
14076;SDS011;7114;51.100;13.998;2023-05-10T14:31:38;7.82;;;2.97;;
14076;SDS011;7114;51.100;13.998;2023-05-10T14:34:04;6.68;;;2.75;;
14076;SDS011;7114;51.100;13.998;2023-05-10T14:36:31;14.43;;;2.90;;
14076;SDS011;7114;51.100;13.998;2023-05-10T14:38:58;8.52;;;3.13;;
14076;SDS011;7114;51.100;13.998;2023-05-10T14:41:24;7.20;;;2.60;;
14076;SDS011;7114;51.100;13.998;2023-05-10T14:43:50;5.80;;;2.60;;
14076;SDS011;7114;51.100;13.998;2023-05-10T14:46:16;6.00;;;2.65;;
14076;SDS011;7114;51.100;13.998;2023-05-10T14:48:44;6.10;;;2.58;;
14076;SDS011;7114;51.100;13.998;2023-05-10T14:51:10;7.45;;;2.88;;